Terminal Aerodrome Forecast
Issued by NWS

Home | Current Version | Previous Version | Text Only | Print | Product List | Glossary On
Versions: 1 2 3 4 5 6 7 8 9 10 11 12
672
FTUS42 KMLB 281740
TAFSFB
TAF
KSFB 281740Z 2818/2918 24005KT P6SM SCT035
     FM281900 26008KT P6SM VCTS SCT040CB BKN250
     FM290000 24005KT P6SM SCT080 BKN250
     FM291400 22007KT P6SM SCT025=

USA.gov is the U.S. government's official web portal to all federal, state and local government web resources and services.